createdAt,value
2017-08-22T00:00:39.320Z,998.25
2017-08-22T00:01:39.146Z,998.22
2017-08-22T00:02:40.382Z,998.27
2017-08-22T00:03:38.715Z,998.21
2017-08-22T00:04:39.555Z,998.22
2017-08-22T00:05:39.547Z,998.18
2017-08-22T00:06:39.708Z,998.16
2017-08-22T00:07:39.752Z,998.13
2017-08-22T00:08:39.077Z,998.17
2017-08-22T00:09:39.239Z,998.15
2017-08-22T00:10:39.087Z,998.12
2017-08-22T00:11:39.216Z,998.19
2017-08-22T00:12:38.740Z,998.16
2017-08-22T00:13:38.745Z,998.09
2017-08-22T00:14:38.751Z,998.13
2017-08-22T00:15:38.794Z,998.16
2017-08-22T00:16:39.448Z,998.15
2017-08-22T00:17:38.791Z,998.15
2017-08-22T00:18:39.149Z,998.17
2017-08-22T00:19:39.191Z,998.16
2017-08-22T00:20:39.563Z,998.15
2017-08-22T00:21:39.606Z,998.16
2017-08-22T00:22:39.687Z,998.11
2017-08-22T00:23:39.550Z,998.24
2017-08-22T00:24:39.554Z,998.21
2017-08-22T00:25:39.596Z,998.16
2017-08-22T00:26:39.145Z,998.13
2017-08-22T00:27:39.371Z,998.09
2017-08-22T00:28:39.134Z,998.10
2017-08-22T00:29:39.273Z,998.16
2017-08-22T00:30:38.829Z,998.17
2017-08-22T00:31:38.762Z,998.23
2017-08-22T00:32:38.786Z,998.18
2017-08-22T00:33:38.824Z,998.18
2017-08-22T00:34:39.563Z,998.21
2017-08-22T00:35:38.800Z,998.13
2017-08-22T00:36:39.234Z,998.18
2017-08-22T00:37:39.605Z,998.15
2017-08-22T00:38:39.638Z,998.19
2017-08-22T00:39:39.683Z,998.15
2017-08-22T00:40:39.626Z,998.15
2017-08-22T00:41:39.658Z,998.21
2017-08-22T00:42:39.603Z,998.11
2017-08-22T00:43:39.641Z,998.17
2017-08-22T00:44:39.880Z,998.17
2017-08-22T00:45:39.203Z,998.15
2017-08-22T00:46:39.239Z,998.21
2017-08-22T00:47:39.288Z,998.18
2017-08-22T00:48:38.816Z,998.23
2017-08-22T00:49:38.852Z,998.27
2017-08-22T00:50:38.853Z,998.30
2017-08-22T00:51:38.869Z,998.29
2017-08-22T00:52:39.301Z,998.28
2017-08-22T00:53:39.239Z,998.28
2017-08-22T00:54:44.429Z,998.30
2017-08-22T00:55:38.844Z,998.31
2017-08-22T00:56:39.690Z,998.33
2017-08-22T00:57:39.634Z,998.35
2017-08-22T00:58:39.672Z,998.40
2017-08-22T00:59:39.716Z,998.31
2017-08-22T01:04:23.007Z,998.40
2017-08-22T01:04:23.611Z,998.23
2017-08-22T01:04:24.224Z,998.30
2017-08-22T01:04:24.828Z,998.39
2017-08-22T01:04:38.869Z,998.32
2017-08-22T01:08:23.074Z,998.31
2017-08-22T01:08:23.674Z,998.38
2017-08-22T01:08:24.307Z,998.46
2017-08-22T01:08:38.847Z,998.37
2017-08-22T01:11:46.667Z,998.37
2017-08-22T01:11:47.275Z,998.33
2017-08-22T01:11:47.883Z,998.37
2017-08-22T01:14:32.722Z,998.44
2017-08-22T01:14:33.335Z,998.38
2017-08-22T01:14:39.053Z,998.44
2017-08-22T01:17:47.803Z,998.32
2017-08-22T01:17:48.416Z,998.48
2017-08-22T01:17:49.022Z,998.34
2017-08-22T01:20:33.182Z,998.35
2017-08-22T01:20:33.797Z,998.38
2017-08-22T01:20:38.913Z,998.33
2017-08-22T01:23:49.032Z,998.31
2017-08-22T01:23:49.639Z,998.40
2017-08-22T01:23:50.244Z,998.39
2017-08-22T01:26:38.323Z,998.37
2017-08-22T01:26:38.931Z,998.41
2017-08-22T01:26:39.539Z,998.34
2017-08-22T01:29:50.251Z,998.39
2017-08-22T01:29:50.863Z,998.44
2017-08-22T01:29:51.467Z,998.35
2017-08-22T01:32:32.900Z,998.36
2017-08-22T01:32:33.525Z,998.39
2017-08-22T01:32:38.951Z,998.34
2017-08-22T01:35:49.775Z,998.30
2017-08-22T01:35:50.390Z,998.29
2017-08-22T01:35:51.010Z,998.32
2017-08-22T01:38:34.236Z,998.35
2017-08-22T01:38:34.855Z,998.36
2017-08-22T01:38:38.964Z,998.37
2017-08-22T01:41:45.174Z,998.30
2017-08-22T01:41:45.777Z,998.36
2017-08-22T01:41:46.395Z,998.36
2017-08-22T01:46:27.165Z,998.35
2017-08-22T01:46:27.871Z,998.34
2017-08-22T01:46:28.486Z,998.36
2017-08-22T01:46:29.097Z,998.34
2017-08-22T01:46:39.030Z,998.38
2017-08-22T01:50:06.758Z,998.34
2017-08-22T01:50:07.366Z,998.33
2017-08-22T01:50:07.980Z,998.30
2017-08-22T01:50:39.048Z,998.39
2017-08-22T01:53:49.166Z,998.32
2017-08-22T01:53:49.773Z,998.37
2017-08-22T01:53:50.388Z,998.32
2017-08-22T01:57:05.040Z,998.32
2017-08-22T01:57:05.643Z,998.34
2017-08-22T01:57:06.261Z,998.40
2017-08-22T01:59:45.030Z,998.35
2017-08-22T01:59:45.644Z,998.40
2017-08-22T01:59:46.251Z,998.35
2017-08-22T02:00:39.059Z,998.33
2017-08-22T02:01:39.505Z,998.23
2017-08-22T02:02:39.446Z,998.26
2017-08-22T02:03:39.477Z,998.26
2017-08-22T02:04:39.810Z,998.23
2017-08-22T02:05:39.837Z,998.18
2017-08-22T02:06:39.862Z,998.32
2017-08-22T02:07:39.892Z,998.25
2017-08-22T02:08:39.927Z,998.27
2017-08-22T02:09:39.958Z,998.25
2017-08-22T02:10:39.891Z,998.29
2017-08-22T02:11:39.444Z,998.26
2017-08-22T02:12:39.492Z,998.32
2017-08-22T02:13:39.522Z,998.32
2017-08-22T02:14:39.474Z,998.26
2017-08-22T02:15:39.503Z,998.24
2017-08-22T02:16:39.036Z,998.26
2017-08-22T02:17:39.183Z,998.23
2017-08-22T02:18:39.120Z,998.26
2017-08-22T02:19:39.150Z,998.22
2017-08-22T02:20:39.082Z,998.22
2017-08-22T02:21:39.522Z,998.22
2017-08-22T02:22:39.545Z,998.22
2017-08-22T02:23:39.880Z,998.26
2017-08-22T02:24:39.993Z,998.24
2017-08-22T02:25:39.957Z,998.27
2017-08-22T02:26:39.885Z,998.21
2017-08-22T02:27:39.920Z,998.21
2017-08-22T02:28:39.951Z,998.24
2017-08-22T02:29:39.983Z,998.23
2017-08-22T02:30:39.525Z,998.26
2017-08-22T02:31:39.557Z,998.24
2017-08-22T02:32:39.593Z,998.25
2017-08-22T02:33:39.128Z,998.22
2017-08-22T02:34:39.139Z,998.27
2017-08-22T02:35:39.207Z,998.24
2017-08-22T02:36:39.127Z,998.30
2017-08-22T02:37:39.564Z,998.25
2017-08-22T02:38:39.584Z,998.27
2017-08-22T02:39:39.612Z,998.29
2017-08-22T02:40:39.608Z,998.35
2017-08-22T02:41:39.952Z,998.26
2017-08-22T02:42:39.994Z,998.33
2017-08-22T02:43:40.019Z,998.28
2017-08-22T02:44:39.957Z,998.31
2017-08-22T02:45:40.020Z,998.28
2017-08-22T02:46:40.056Z,998.27
2017-08-22T02:47:39.578Z,998.33
2017-08-22T02:48:39.617Z,998.29
2017-08-22T02:49:39.558Z,998.33
2017-08-22T02:50:39.582Z,998.24
2017-08-22T02:51:39.718Z,998.25
2017-08-22T02:52:39.256Z,998.25
2017-08-22T02:53:39.175Z,998.31
2017-08-22T02:54:39.204Z,998.27
2017-08-22T02:55:39.646Z,998.24
2017-08-22T02:56:39.579Z,998.29
2017-08-22T02:57:39.644Z,998.30
2017-08-22T02:58:39.978Z,998.27
2017-08-22T02:59:40.021Z,998.33
2017-08-22T03:00:40.176Z,998.41
2017-08-22T03:01:40.046Z,998.28
2017-08-22T03:02:40.075Z,998.33
2017-08-22T03:03:40.123Z,998.26
2017-08-22T03:04:39.576Z,998.27
2017-08-22T03:05:39.679Z,998.29
2017-08-22T03:06:39.656Z,998.27
2017-08-22T03:07:39.717Z,998.23
2017-08-22T03:08:39.753Z,998.23
2017-08-22T03:09:39.293Z,998.23
2017-08-22T03:10:39.250Z,998.20
2017-08-22T03:11:39.271Z,998.19
2017-08-22T03:12:39.306Z,998.11
2017-08-22T03:13:39.251Z,998.18
2017-08-22T03:14:39.688Z,998.12
2017-08-22T03:15:40.048Z,998.21
2017-08-22T03:16:40.095Z,998.21
2017-08-22T03:17:40.061Z,998.20
2017-08-22T03:18:40.022Z,998.19
2017-08-22T03:19:40.073Z,998.26
2017-08-22T03:20:40.115Z,998.17
2017-08-22T03:21:40.066Z,998.25
2017-08-22T03:22:39.789Z,998.19
2017-08-22T03:23:39.729Z,998.18
2017-08-22T03:24:39.690Z,998.20
2017-08-22T03:25:39.795Z,998.18
2017-08-22T03:26:39.742Z,998.17
2017-08-22T03:27:39.283Z,998.26
2017-08-22T03:28:39.320Z,998.23
2017-08-22T03:29:39.278Z,998.21
2017-08-22T03:30:39.314Z,998.12
2017-08-22T03:31:39.747Z,998.28
2017-08-22T03:32:39.768Z,998.20
2017-08-22T03:33:40.106Z,998.15
2017-08-22T03:34:39.855Z,998.16
2017-08-22T03:35:40.084Z,998.15
2017-08-22T03:36:40.121Z,998.22
2017-08-22T03:37:40.112Z,998.19
2017-08-22T03:38:40.141Z,998.20
2017-08-22T03:39:40.167Z,998.15
2017-08-22T03:40:40.211Z,998.17
2017-08-22T03:41:39.732Z,998.27
2017-08-22T03:42:39.775Z,998.18
2017-08-22T03:43:39.312Z,998.20
2017-08-22T03:44:39.349Z,998.27
2017-08-22T03:45:39.290Z,998.20
2017-08-22T03:47:30.943Z,998.20
2017-08-22T03:49:04.540Z,998.25
2017-08-22T03:49:05.142Z,998.32
2017-08-22T03:49:05.755Z,998.25
2017-08-22T03:49:39.332Z,998.25
2017-08-22T03:50:39.772Z,998.20
2017-08-22T03:51:40.209Z,998.19
2017-08-22T03:52:40.154Z,998.21
2017-08-22T03:53:40.192Z,998.22
2017-08-22T03:54:40.340Z,998.13
2017-08-22T03:55:40.186Z,998.22
2017-08-22T03:56:40.121Z,998.27
2017-08-22T03:57:39.748Z,998.26
2017-08-22T03:58:39.782Z,998.23
2017-08-22T03:59:39.812Z,998.26
2017-08-22T04:00:39.771Z,998.19
2017-08-22T04:01:39.323Z,998.20
2017-08-22T04:02:39.361Z,998.28
2017-08-22T04:03:39.360Z,998.24
2017-08-22T04:04:39.403Z,998.22
2017-08-22T04:05:39.334Z,998.31
2017-08-22T04:06:39.777Z,998.23
2017-08-22T04:07:39.822Z,998.21
2017-08-22T04:08:39.840Z,998.26
2017-08-22T04:09:39.889Z,998.29
2017-08-22T04:10:40.159Z,998.25
2017-08-22T04:11:40.324Z,998.29
2017-08-22T04:12:40.254Z,998.26
2017-08-22T04:13:40.203Z,998.29
2017-08-22T04:14:40.244Z,998.21
2017-08-22T04:15:39.789Z,998.24
2017-08-22T04:16:39.831Z,998.25
2017-08-22T04:17:39.856Z,998.24
2017-08-22T04:18:39.811Z,998.28
2017-08-22T04:19:39.876Z,998.27
2017-08-22T04:20:39.429Z,998.21
2017-08-22T04:21:39.966Z,998.23
2017-08-22T04:22:39.407Z,998.24
2017-08-22T04:23:39.875Z,998.24
2017-08-22T04:24:39.929Z,998.17
2017-08-22T04:25:39.898Z,998.20
2017-08-22T04:26:39.969Z,998.20
2017-08-22T04:27:40.246Z,998.18
2017-08-22T04:28:40.012Z,998.18
2017-08-22T04:29:40.265Z,998.21
2017-08-22T04:30:40.268Z,998.25
2017-08-22T04:31:40.241Z,998.26
2017-08-22T04:32:40.256Z,998.27
2017-08-22T04:33:40.291Z,998.27
2017-08-22T04:34:39.927Z,998.25
2017-08-22T04:35:39.970Z,998.38
2017-08-22T04:36:39.924Z,998.27
2017-08-22T04:37:39.460Z,998.22
2017-08-22T04:38:39.500Z,998.28
2017-08-22T04:39:39.522Z,998.20
2017-08-22T04:40:39.485Z,998.24
2017-08-22T04:41:39.544Z,998.25
2017-08-22T04:42:39.502Z,998.28
2017-08-22T04:43:39.893Z,998.27
2017-08-22T04:44:39.936Z,998.27
2017-08-22T04:45:40.119Z,998.23
2017-08-22T04:46:40.331Z,998.22
2017-08-22T04:47:40.346Z,998.17
2017-08-22T04:48:41.446Z,998.17
2017-08-22T04:49:39.591Z,998.17
2017-08-22T04:50:40.287Z,998.22
2017-08-22T04:51:40.354Z,998.22
2017-08-22T04:52:39.925Z,998.23
2017-08-22T04:53:40.036Z,998.21
2017-08-22T04:54:40.024Z,998.18
2017-08-22T04:55:39.540Z,998.20
2017-08-22T04:56:39.559Z,998.18
2017-08-22T04:57:39.587Z,998.22
2017-08-22T04:58:39.597Z,998.18
2017-08-22T04:59:39.623Z,998.25
2017-08-22T05:00:39.565Z,998.19
2017-08-22T05:01:40.280Z,998.28
2017-08-22T05:02:40.032Z,998.28
2017-08-22T05:03:40.338Z,998.27
2017-08-22T05:04:40.354Z,998.23
2017-08-22T05:05:40.380Z,998.30
2017-08-22T05:06:40.418Z,998.21
2017-08-22T05:07:40.334Z,998.24
2017-08-22T05:08:40.381Z,998.28
2017-08-22T05:09:40.578Z,998.22
2017-08-22T05:10:40.108Z,998.27
2017-08-22T05:11:39.951Z,998.24
2017-08-22T05:12:39.997Z,998.23
2017-08-22T05:13:39.530Z,998.25
2017-08-22T05:14:39.673Z,998.30
2017-08-22T05:15:39.662Z,998.28
2017-08-22T05:16:39.547Z,998.35
2017-08-22T05:17:40.045Z,998.31
2017-08-22T05:18:40.038Z,998.36
2017-08-22T05:19:40.046Z,998.35
2017-08-22T05:20:40.080Z,998.39
2017-08-22T05:21:40.409Z,998.38
2017-08-22T05:22:40.148Z,998.31
2017-08-22T05:23:40.441Z,998.35
2017-08-22T05:24:40.476Z,998.37
2017-08-22T05:25:40.622Z,998.35
2017-08-22T05:26:40.431Z,998.30
2017-08-22T05:27:40.471Z,998.33
2017-08-22T05:28:40.001Z,998.31
2017-08-22T05:29:40.126Z,998.26
2017-08-22T05:30:40.051Z,998.27
2017-08-22T05:31:39.657Z,998.21
2017-08-22T05:32:39.672Z,998.27
2017-08-22T05:33:39.592Z,998.23
2017-08-22T05:34:39.736Z,998.23
2017-08-22T05:35:39.627Z,998.24
2017-08-22T05:36:40.069Z,998.25
2017-08-22T05:37:40.099Z,998.32
2017-08-22T05:38:40.103Z,998.27
2017-08-22T05:39:40.186Z,998.22
2017-08-22T05:40:40.571Z,998.27
2017-08-22T05:41:40.470Z,998.17
2017-08-22T05:42:40.483Z,998.32
2017-08-22T05:43:40.496Z,998.23
2017-08-22T05:44:43.542Z,998.24
2017-08-22T05:45:39.959Z,998.28
2017-08-22T05:46:40.726Z,998.25
2017-08-22T05:47:40.073Z,998.26
2017-08-22T05:48:40.232Z,998.26
2017-08-22T05:49:40.188Z,998.24
2017-08-22T05:50:39.740Z,998.28
2017-08-22T05:51:39.685Z,998.20
2017-08-22T05:52:39.726Z,998.16
2017-08-22T05:53:39.677Z,998.13
2017-08-22T05:54:40.330Z,998.12
2017-08-22T05:55:40.060Z,998.13
2017-08-22T05:56:40.115Z,998.10
2017-08-22T05:57:40.550Z,998.17
2017-08-22T05:58:40.571Z,998.11
2017-08-22T05:59:40.558Z,998.06
2017-08-22T06:00:40.669Z,998.18
2017-08-22T06:01:40.573Z,998.17
2017-08-22T06:02:40.551Z,998.11
2017-08-22T06:03:40.617Z,998.10
2017-08-22T06:04:40.094Z,998.17
2017-08-22T06:05:40.113Z,998.11
2017-08-22T06:06:40.131Z,998.12
2017-08-22T06:07:39.757Z,998.15
2017-08-22T06:08:40.275Z,998.14
2017-08-22T06:09:39.825Z,998.08
2017-08-22T06:10:39.785Z,998.09
2017-08-22T07:04:57.688Z,997.69
2017-08-22T07:05:28.986Z,997.77
2017-08-22T07:06:21.162Z,997.72
2017-08-22T07:07:21.140Z,997.68
2017-08-22T07:08:00.302Z,997.76
2017-08-22T07:09:00.353Z,997.73
2017-08-22T07:10:21.215Z,997.72
2017-08-22T07:11:21.210Z,997.74
2017-08-22T07:12:00.287Z,997.74
2017-08-22T07:13:21.084Z,997.73
2017-08-22T07:14:20.981Z,997.73
2017-08-22T07:15:00.389Z,997.66
2017-08-22T07:16:00.346Z,997.68
2017-08-22T07:17:21.227Z,997.75
2017-08-22T07:18:21.101Z,997.70
2017-08-22T07:19:00.297Z,997.71
2017-08-22T07:20:00.387Z,997.58
2017-08-22T07:21:21.164Z,997.61
2017-08-22T07:25:03.789Z,997.60
2017-08-22T07:25:35.079Z,997.56
2017-08-22T07:26:33.538Z,997.57
2017-08-22T07:27:25.587Z,997.57
2017-08-22T07:28:00.360Z,997.50
2017-08-22T07:29:21.146Z,997.47
2017-08-22T07:30:21.189Z,997.49
2017-08-22T07:31:00.366Z,997.50
2017-08-22T07:32:00.420Z,997.49
2017-08-22T07:33:21.242Z,997.51
2017-08-22T07:34:21.288Z,997.45
2017-08-22T07:35:00.386Z,997.46
2017-08-22T07:36:00.419Z,997.53
2017-08-22T07:37:21.292Z,997.58
2017-08-22T07:38:00.379Z,997.54
2017-08-22T07:39:00.402Z,997.48
2017-08-22T07:40:21.351Z,997.59
2017-08-22T07:41:21.270Z,997.59
2017-08-22T07:42:00.460Z,997.54
2017-08-22T07:43:00.422Z,997.60
2017-08-22T07:44:21.261Z,997.59
2017-08-22T07:45:21.320Z,997.57
2017-08-22T07:46:00.509Z,997.56
2017-08-22T07:47:00.444Z,997.56
2017-08-22T07:48:21.331Z,997.56
2017-08-22T07:49:21.272Z,997.53
2017-08-22T07:50:00.473Z,997.55
2017-08-22T07:51:00.411Z,997.55
2017-08-22T07:52:24.123Z,997.54
2017-08-22T07:53:00.495Z,997.58
2017-08-22T07:54:00.702Z,997.53
2017-08-22T07:55:21.434Z,997.59
2017-08-22T07:56:21.392Z,997.59
2017-08-22T07:57:00.422Z,997.59
2017-08-22T07:58:00.515Z,997.59
2017-08-22T07:59:21.269Z,997.54
2017-08-22T08:00:21.188Z,997.49
2017-08-22T08:01:00.543Z,997.57
2017-08-22T08:02:00.462Z,997.49
2017-08-22T08:03:21.229Z,997.54
2017-08-22T08:04:21.360Z,997.47
2017-08-22T08:05:00.446Z,997.53
2017-08-22T08:06:00.501Z,997.50
2017-08-22T08:07:21.374Z,997.52
2017-08-22T08:08:21.237Z,997.49
2017-08-22T08:09:00.524Z,997.47
2017-08-22T08:10:00.508Z,997.40
2017-08-22T08:11:21.385Z,997.41
2017-08-22T08:12:21.335Z,997.38
2017-08-22T08:13:00.522Z,997.48
2017-08-22T08:14:00.552Z,997.43
2017-08-22T08:15:21.324Z,997.46
2017-08-22T08:16:21.349Z,997.52
2017-08-22T08:17:01.634Z,997.49
2017-08-22T08:18:00.596Z,997.47
2017-08-22T08:19:21.360Z,997.41
2017-08-22T08:20:21.357Z,997.49
2017-08-22T08:21:00.482Z,997.48
2017-08-22T08:22:21.251Z,997.42
2017-08-22T08:23:21.398Z,997.40
2017-08-22T08:24:00.530Z,997.47
2017-08-22T08:25:00.568Z,997.43
2017-08-22T08:26:21.258Z,997.43
2017-08-22T08:27:21.335Z,997.47
2017-08-22T08:28:00.568Z,997.40
2017-08-22T08:29:00.603Z,997.44
2017-08-22T08:30:21.364Z,997.46
2017-08-22T08:31:21.324Z,997.41
2017-08-22T08:32:00.571Z,997.37
2017-08-22T08:33:00.652Z,997.33
2017-08-22T08:34:21.300Z,997.36
2017-08-22T08:35:21.393Z,997.39
2017-08-22T08:36:00.541Z,997.31
2017-08-22T08:37:21.286Z,997.35
2017-08-22T08:38:21.441Z,997.28
2017-08-22T08:39:00.668Z,997.31
2017-08-22T08:40:00.620Z,997.31
2017-08-22T08:41:21.303Z,997.34
2017-08-22T08:42:21.396Z,997.39
2017-08-22T08:43:00.735Z,997.33
2017-08-22T08:44:00.565Z,997.31
2017-08-22T08:45:21.574Z,997.32
2017-08-22T08:46:21.297Z,997.28
2017-08-22T08:47:00.642Z,997.31
2017-08-22T08:48:00.712Z,997.29
2017-08-22T08:49:21.591Z,997.27
2017-08-22T08:50:00.548Z,997.27
2017-08-22T08:51:00.565Z,997.27
2017-08-22T08:52:21.286Z,997.22
2017-08-22T08:53:21.376Z,997.18
2017-08-22T08:54:00.547Z,997.21
2017-08-22T08:55:21.278Z,997.22
2017-08-22T08:56:21.361Z,997.19
2017-08-22T08:57:00.611Z,997.16
2017-08-22T08:58:00.606Z,997.19
2017-08-22T08:59:22.011Z,997.24
2017-08-22T09:00:21.326Z,997.16
2017-08-22T09:01:00.662Z,997.22
2017-08-22T09:02:00.600Z,997.27
2017-08-22T09:03:21.488Z,997.21
2017-08-22T09:04:21.373Z,997.14
2017-08-22T09:05:00.604Z,997.19
2017-08-22T09:06:00.722Z,997.18
2017-08-22T09:07:21.506Z,997.13
2017-08-22T09:08:21.515Z,997.14
2017-08-22T09:09:00.649Z,997.06
2017-08-22T09:10:00.629Z,997.06
2017-08-22T09:11:21.483Z,997.05
2017-08-22T09:12:21.506Z,997.08
2017-08-22T09:13:00.745Z,997.13
2017-08-22T09:14:00.715Z,997.04
2017-08-22T09:15:21.467Z,997.11
2017-08-22T09:16:21.543Z,997.10
2017-08-22T09:17:00.634Z,997.04
2017-08-22T09:18:00.668Z,997.02
2017-08-22T09:19:21.562Z,997.06
2017-08-22T09:20:21.407Z,997.05
2017-08-22T09:21:00.650Z,997.07
2017-08-22T09:22:00.729Z,997.05
2017-08-22T09:23:21.609Z,997.09
2017-08-22T09:24:00.667Z,997.06
2017-08-22T09:25:00.774Z,997.07
2017-08-22T09:26:21.485Z,997.06
2017-08-22T09:27:21.790Z,997.03
2017-08-22T09:28:00.697Z,997.04
2017-08-22T09:29:21.636Z,997.04
2017-08-22T09:30:21.418Z,997.01
2017-08-22T09:31:00.747Z,997.04
2017-08-22T09:32:00.697Z,997.01
2017-08-22T09:33:21.522Z,996.99
2017-08-22T09:34:21.488Z,997.04
2017-08-22T09:35:00.704Z,996.96
2017-08-22T09:36:00.676Z,997.00
2017-08-22T09:37:21.506Z,996.99
2017-08-22T09:38:21.442Z,997.03
2017-08-22T09:39:00.787Z,997.01
2017-08-22T09:40:00.738Z,996.90
2017-08-22T09:41:21.605Z,996.90
2017-08-22T09:42:21.557Z,996.84
2017-08-22T09:43:01.090Z,996.92
2017-08-22T09:44:00.736Z,996.86
2017-08-22T09:45:21.477Z,996.81
2017-08-22T09:46:21.657Z,996.92
2017-08-22T09:47:00.781Z,996.88
2017-08-22T09:48:22.019Z,996.88
2017-08-22T09:49:21.672Z,996.98
2017-08-22T09:50:00.858Z,996.94
2017-08-22T09:51:00.806Z,996.89
2017-08-22T09:52:21.462Z,996.93
2017-08-22T09:53:21.465Z,996.85
2017-08-22T09:54:00.817Z,996.80
2017-08-22T09:55:00.710Z,996.84
2017-08-22T09:56:21.536Z,996.73
2017-08-22T09:57:21.672Z,996.74
2017-08-22T09:58:00.762Z,996.75
2017-08-22T09:59:00.809Z,996.62
2017-08-22T10:00:21.551Z,996.80
2017-08-22T10:01:21.734Z,996.65
2017-08-22T10:02:00.788Z,996.69
2017-08-22T10:03:00.791Z,996.67
2017-08-22T10:04:21.560Z,996.62
2017-08-22T10:04:59.424Z,996.62
2017-08-22T10:05:51.420Z,996.56
2017-08-22T10:07:10.648Z,996.69
2017-08-22T10:08:21.457Z,996.68
2017-08-22T10:09:21.742Z,996.62
2017-08-22T10:10:00.962Z,996.60
2017-08-22T10:11:00.838Z,996.58
2017-08-22T10:12:21.724Z,996.66
2017-08-22T10:13:21.518Z,996.69
2017-08-22T10:14:00.741Z,996.59
2017-08-22T10:15:00.842Z,996.57
2017-08-22T10:16:21.695Z,996.51
2017-08-22T10:17:21.627Z,996.59
2017-08-22T10:18:00.822Z,996.54
2017-08-22T10:19:00.847Z,996.57
2017-08-22T10:20:21.733Z,996.52
2017-08-22T10:21:21.680Z,996.60
2017-08-22T10:22:00.901Z,996.48
2017-08-22T10:23:00.934Z,996.50
2017-08-22T10:24:21.729Z,996.57
2017-08-22T10:25:21.715Z,996.52
2017-08-22T10:26:00.919Z,996.51
2017-08-22T10:26:59.328Z,996.51
2017-08-22T10:27:51.457Z,996.44
2017-08-22T10:28:22.704Z,996.42
2017-08-22T10:29:21.667Z,996.36
2017-08-22T10:30:21.705Z,1003.45
2017-08-22T10:31:00.856Z,996.39
2017-08-22T10:32:00.828Z,996.41
2017-08-22T10:33:21.627Z,996.48
2017-08-22T10:34:21.576Z,996.32
2017-08-22T10:35:00.851Z,996.33
2017-08-22T10:36:00.944Z,996.39
2017-08-22T10:37:21.654Z,996.39
2017-08-22T10:38:21.680Z,996.43
2017-08-22T10:39:00.939Z,996.37
2017-08-22T10:40:21.865Z,996.32
2017-08-22T10:41:21.792Z,996.37
2017-08-22T10:42:00.863Z,996.39
2017-08-22T10:43:00.914Z,996.32
2017-08-22T10:44:21.688Z,996.26
2017-08-22T10:45:21.652Z,996.34
2017-08-22T10:46:00.928Z,996.24
2017-08-22T10:47:00.954Z,996.23
2017-08-22T10:48:21.738Z,996.25
2017-08-22T10:49:00.946Z,996.30
2017-08-22T10:50:01.142Z,996.24
2017-08-22T10:51:21.866Z,996.20
2017-08-22T10:52:21.696Z,996.25
2017-08-22T10:53:00.970Z,996.15
2017-08-22T10:54:00.965Z,996.24
2017-08-22T10:55:21.833Z,996.21
2017-08-22T10:56:21.724Z,996.17
2017-08-22T10:57:00.988Z,996.10
2017-08-22T10:58:00.916Z,996.13
2017-08-22T10:59:21.780Z,996.18
2017-08-22T11:00:21.680Z,996.24
2017-08-22T11:01:01.063Z,996.23
2017-08-22T11:02:01.065Z,996.32
2017-08-22T11:03:21.876Z,996.26
2017-08-22T11:04:21.799Z,996.34
2017-08-22T11:05:01.035Z,996.23
2017-08-22T11:06:00.996Z,996.26
2017-08-22T11:07:21.690Z,996.19
2017-08-22T11:08:21.740Z,996.27
2017-08-22T11:09:01.019Z,996.22
2017-08-22T11:10:01.021Z,996.22
2017-08-22T11:11:21.749Z,996.21
2017-08-22T11:12:21.729Z,996.19
2017-08-22T11:13:01.025Z,996.12
2017-08-22T11:14:01.004Z,996.16
2017-08-22T11:15:21.732Z,996.12
2017-08-22T11:16:21.897Z,996.14
2017-08-22T11:17:01.024Z,996.21
2017-08-22T11:18:01.004Z,996.17
2017-08-22T11:19:21.769Z,996.18
2017-08-22T11:20:21.703Z,996.19
2017-08-22T11:21:01.253Z,996.17
2017-08-22T11:22:01.024Z,996.22
2017-08-22T11:23:21.944Z,996.18
2017-08-22T11:24:01.021Z,996.14
2017-08-22T11:25:01.090Z,996.11
2017-08-22T11:26:21.965Z,996.11
2017-08-22T11:26:59.589Z,996.11
2017-08-22T11:27:51.513Z,996.06
2017-08-22T11:29:10.568Z,996.01
2017-08-22T11:30:21.837Z,996.01
2017-08-22T11:31:21.957Z,995.98
2017-08-22T11:32:01.004Z,996.04
2017-08-22T11:33:22.029Z,996.12
2017-08-22T11:34:21.741Z,996.00
2017-08-22T11:35:01.072Z,996.04
2017-08-22T11:36:01.132Z,995.99
2017-08-22T11:37:21.898Z,995.98
2017-08-22T11:38:21.974Z,995.99
2017-08-22T11:39:01.115Z,996.03
2017-08-22T11:40:01.107Z,995.98
2017-08-22T11:41:21.966Z,996.06
2017-08-22T11:42:21.863Z,996.08
2017-08-22T11:43:01.239Z,996.00
2017-08-22T11:44:01.071Z,996.02
2017-08-22T11:45:21.962Z,995.96
2017-08-22T11:46:21.961Z,995.95
2017-08-22T11:47:01.253Z,995.99
2017-08-22T11:48:01.150Z,995.92
2017-08-22T11:49:22.146Z,995.93
2017-08-22T11:50:21.773Z,995.91
2017-08-22T11:51:01.123Z,995.96
2017-08-22T11:52:01.175Z,995.99
2017-08-22T11:53:21.795Z,995.96
2017-08-22T11:54:21.859Z,995.96
2017-08-22T11:55:01.198Z,995.99
2017-08-22T11:56:01.078Z,995.97
2017-08-22T11:57:21.992Z,995.99
2017-08-22T11:58:21.928Z,995.98
2017-08-22T11:59:01.145Z,996.00
2017-08-22T12:00:01.108Z,995.95
2017-08-22T12:01:22.118Z,995.94
2017-08-22T12:02:21.971Z,995.85
2017-08-22T12:03:54.647Z,995.85
2017-08-22T12:04:25.943Z,996.00
2017-08-22T12:05:24.305Z,995.86
2017-08-22T12:06:22.072Z,995.87
2017-08-22T12:07:22.055Z,995.86
2017-08-22T12:08:01.204Z,995.84
2017-08-22T12:09:01.187Z,995.84
2017-08-22T12:10:22.012Z,995.93
2017-08-22T12:11:21.977Z,995.88
2017-08-22T12:12:01.628Z,995.96
2017-08-22T12:13:01.195Z,995.83
2017-08-22T12:14:21.941Z,995.86
2017-08-22T12:15:21.964Z,996.00
2017-08-22T12:16:01.347Z,995.94
2017-08-22T12:17:01.258Z,995.94
2017-08-22T12:18:22.205Z,995.94
2017-08-22T12:19:22.174Z,995.94
2017-08-22T12:20:01.566Z,995.95
2017-08-22T12:21:01.344Z,995.95
2017-08-22T12:22:22.077Z,995.90
2017-08-22T12:23:22.172Z,995.92
2017-08-22T12:24:01.222Z,995.88
2017-08-22T12:25:21.996Z,995.88
2017-08-22T12:26:21.908Z,995.87
2017-08-22T12:27:01.272Z,995.84
2017-08-22T12:28:01.213Z,995.88
2017-08-22T12:29:22.276Z,995.81
2017-08-22T12:30:21.961Z,995.76
2017-08-22T12:31:01.237Z,995.78
2017-08-22T12:32:01.257Z,995.80
2017-08-22T12:33:22.134Z,995.84
2017-08-22T12:34:01.321Z,995.79
2017-08-22T12:35:01.302Z,995.75
2017-08-22T12:36:22.027Z,995.77
2017-08-22T12:37:22.193Z,995.69
2017-08-22T12:38:01.226Z,995.76
2017-08-22T12:39:01.414Z,995.77
2017-08-22T12:40:22.072Z,995.67
2017-08-22T12:41:22.141Z,995.72
2017-08-22T12:42:01.256Z,995.77
2017-08-22T12:43:01.423Z,995.67
2017-08-22T12:44:22.086Z,995.60
2017-08-22T12:45:21.976Z,995.61
2017-08-22T12:46:01.423Z,995.57
2017-08-22T12:47:01.467Z,995.70
2017-08-22T12:48:22.117Z,995.67
2017-08-22T12:49:22.327Z,995.69
2017-08-22T12:50:01.268Z,995.55
2017-08-22T12:51:01.559Z,995.60
2017-08-22T12:52:22.063Z,995.57
2017-08-22T12:53:22.516Z,995.54
2017-08-22T12:54:01.231Z,995.56
2017-08-22T12:55:01.584Z,995.58
2017-08-22T12:56:22.162Z,995.49
2017-08-22T12:57:22.382Z,995.50
2017-08-22T12:58:01.377Z,995.59
2017-08-22T12:59:22.127Z,995.48
2017-08-22T13:00:22.082Z,995.51
2017-08-22T13:01:01.392Z,995.50
2017-08-22T13:02:01.394Z,995.57
2017-08-22T13:03:22.342Z,995.52
2017-08-22T13:04:01.314Z,995.54
2017-08-22T13:05:01.314Z,995.50
2017-08-22T13:06:22.057Z,995.40
2017-08-22T13:07:22.088Z,995.42
2017-08-22T13:08:01.282Z,995.42
2017-08-22T13:09:01.370Z,995.47
2017-08-22T13:10:22.223Z,995.45
2017-08-22T13:11:22.111Z,995.44
2017-08-22T13:12:01.286Z,995.41
2017-08-22T13:13:01.343Z,995.38
2017-08-22T13:14:22.123Z,995.40
2017-08-22T13:15:22.156Z,995.42
2017-08-22T13:16:01.348Z,995.42
2017-08-22T13:17:01.648Z,995.45
2017-08-22T13:18:22.033Z,995.54
2017-08-22T13:19:22.074Z,995.44
2017-08-22T13:20:01.428Z,995.40
2017-08-22T13:21:01.332Z,995.46